METAR AND TAF INFORMATION
METAR FOR LROP
ADDS - METARS form results

(0612 UTC 30 September 2022)
Data provider http://aviationweather.gov/metar/data/
 
METAR text: LROP 300600Z 29003KT 250V320 CAVOK 16/13 Q1013 NOSIG
Conditions at: LROP (BUCHAREST/OTOPEN, RO) observed 0600 UTC 30 September 2022
Temperature: 16.0°C (61°F)
Dewpoint: 13.0°C (55°F) [RH = 82%]
Pressure (altimeter): 29.91 inches Hg (1013.0 mb)
Winds: from the WNW (290 degrees) at 3 MPH (3 knots; 1.5 m/s)
Visibility: 6 or more miles (10+ km)
Ceiling: ceiling and visibility are OK
Clouds: unknown
Weather: no significant weather observed at this time

METAR text: LROP 300530Z 28004KT CAVOK 15/12 Q1012 NOSIG
Conditions at: LROP (BUCHAREST/OTOPEN, RO) observed 0530 UTC 30 September 2022
Temperature: 15.0°C (59°F)
Dewpoint: 12.0°C (54°F) [RH = 82%]
Pressure (altimeter): 29.88 inches Hg (1012.0 mb)
Winds: from the W (280 degrees) at 5 MPH (4 knots; 2.1 m/s)
Visibility: 6 or more miles (10+ km)
Ceiling: ceiling and visibility are OK
Clouds: unknown
Weather: no significant weather observed at this time

Forecast for: LROP (BUCHAREST/OTOPEN, RO)
Text: TAF LROP 300500Z 3006/0106 VRB04KT CAVOK
Forecast period: 0600 UTC 30 September 2022 to 0600 UTC 01 October 2022
Forecast type: FROM: standard forecast or significant change
Winds: variable direction winds at 5 MPH (4 knots; 2.1 m/s)
Visibility: 6 or more miles (10+ km)
Ceiling: unknown
Clouds: missing
Weather: NSW  (no significant weather)
Text: TEMPO 3011/3018 25010KT
Forecast period: 1100 to 1800 UTC 30 September 2022
Forecast type: TEMPORARY: The following changes expected for less than half the time period
Winds: from the WSW (250 degrees) at 12 MPH (10 knots; 5.1 m/s)
Visibility: missing
Ceiling: unknown
Clouds: missing
Weather: no significant weather forecast for this period

 AIRPORT MAP

 RUNWAY INFORMATION
Runway 08L Runway length 11484 ft Runway width 148 ft
Runway elevation 313 ft Runway displaced threshold 0 ft Runway heading 84
Runway 26R Runway length 11484 ft Runway width 148 ft
Runway elevation 303 ft Runway displaced threshold 0 ft Runway heading 264
Runway 08R Runway length 11484 ft Runway width 148 ft
Runway elevation 314 ft Runway displaced threshold 0 ft Runway heading 84
Runway 26L Runway length 11484 ft Runway width 148 ft
Runway elevation 303 ft Runway displaced threshold 0 ft Runway heading 264

 AIRPORT FREQUENCIES
Type APP Name BUCURESTI Frequency 118.25 MHZ
Type ATIS Name OTOPENI AT Frequency 118.5 MHZ
Type GND Name OTOPENI GN Frequency 121.7 MHZ
Type TWR Name OTOPENI TW Frequency 120.9 MHZ

 AIRPORT NEAR NAVIGATION AIDS
Type VOR-DME Name Floresti Frequency 112200 KHZ
Type NDB Name Otopeni Frequency 349 KHZ
Type NDB Name Otopeni Frequency 268 KHZ
Type NDB Name Otopeni Frequency 370 KHZ
Type VOR-DME Name Strejnic Frequency 113200 KHZ



Powered by Heron Airways VA. All Rights Reserved © 2009 [v2.6.2]